createdAt,value
2023-02-04T00:08:22.445Z,4.37
2023-02-04T00:18:24.765Z,3.80
2023-02-04T00:28:26.836Z,3.50
2023-02-04T00:38:29.776Z,3.30
2023-02-04T00:48:32.211Z,3.63
2023-02-04T00:58:34.405Z,3.97
2023-02-04T01:08:38.592Z,3.27
2023-02-04T01:18:41.712Z,3.67
2023-02-04T01:28:44.182Z,4.00
2023-02-04T01:38:46.508Z,4.03
2023-02-04T01:48:48.909Z,3.97
2023-02-04T01:58:51.250Z,3.87
2023-02-04T02:08:53.680Z,4.10
2023-02-04T02:18:57.714Z,4.10
2023-02-04T02:29:00.079Z,3.63
2023-02-04T02:39:02.223Z,3.30
2023-02-04T02:49:04.643Z,3.77
2023-02-04T02:59:17.520Z,3.23
2023-02-04T03:09:20.007Z,3.60
2023-02-04T03:19:24.446Z,3.83
2023-02-04T03:29:28.446Z,3.37
2023-02-04T03:39:32.038Z,4.20
2023-02-04T03:49:35.827Z,4.30
2023-02-04T03:59:38.284Z,3.83
2023-02-04T04:09:40.618Z,4.80
2023-02-04T04:19:44.635Z,2.90
2023-02-04T04:29:46.729Z,4.80
2023-02-04T04:39:48.889Z,4.20
2023-02-04T04:49:51.000Z,3.93
2023-02-04T04:59:53.124Z,4.43
2023-02-04T05:09:55.197Z,4.33
2023-02-04T05:19:57.517Z,3.50
2023-02-04T05:30:00.769Z,4.37
2023-02-04T05:40:03.179Z,3.93
2023-02-04T05:50:06.624Z,4.17
2023-02-04T06:00:09.843Z,4.10
2023-02-04T06:10:15.173Z,4.43
2023-02-04T06:20:17.551Z,3.80
2023-02-04T06:30:19.988Z,4.07
2023-02-04T06:40:22.244Z,4.70
2023-02-04T06:50:24.431Z,5.17
2023-02-04T07:00:26.611Z,5.27
2023-02-04T07:10:28.779Z,4.77
2023-02-04T07:20:31.252Z,4.30
2023-02-04T07:30:34.049Z,4.50
2023-02-04T07:40:36.441Z,3.60
2023-02-04T07:50:39.046Z,4.07
2023-02-04T08:00:41.342Z,4.00
2023-02-04T08:10:43.528Z,3.90
2023-02-04T08:20:46.262Z,4.80
2023-02-04T08:30:49.345Z,5.37
2023-02-04T08:40:52.981Z,4.73
2023-02-04T08:50:55.698Z,4.53
2023-02-04T09:00:58.184Z,9.40
2023-02-04T09:11:01.274Z,4.57
2023-02-04T09:21:04.067Z,3.73
2023-02-04T09:31:07.390Z,5.57
2023-02-04T09:41:12.440Z,5.60
2023-02-04T09:51:18.971Z,6.67
2023-02-04T10:01:21.491Z,7.13
2023-02-04T10:11:25.918Z,9.07
2023-02-04T10:21:30.328Z,8.73
2023-02-04T10:31:38.216Z,5.63
2023-02-04T10:41:49.883Z,5.17
2023-02-04T10:51:52.856Z,5.47
2023-02-04T11:01:57.107Z,4.87
2023-02-04T11:12:00.339Z,5.17
2023-02-04T11:22:22.699Z,5.33
2023-02-04T11:32:29.885Z,5.03
2023-02-04T11:42:32.048Z,6.00
2023-02-04T11:52:36.182Z,5.33
2023-02-04T12:02:48.906Z,5.30
2023-02-04T12:12:55.874Z,5.13
2023-02-04T12:22:58.273Z,4.63
2023-02-04T12:33:00.576Z,5.30
2023-02-04T12:43:03.060Z,5.63
2023-02-04T12:53:06.412Z,4.90
2023-02-04T13:03:09.868Z,5.87
2023-02-04T13:13:12.573Z,5.60
2023-02-04T13:23:15.076Z,6.10
2023-02-04T13:43:55.786Z,6.87
2023-02-04T13:54:00.929Z,6.47
2023-02-04T14:04:04.941Z,5.97
2023-02-04T14:14:08.825Z,6.17
2023-02-04T14:24:11.306Z,5.90
2023-02-04T14:34:13.958Z,5.77
2023-02-04T14:44:21.082Z,5.17
2023-02-04T14:54:24.164Z,6.23
2023-02-04T15:04:26.957Z,6.67
2023-02-04T15:14:30.225Z,6.43
2023-02-04T15:24:32.694Z,6.97
2023-02-04T15:34:35.186Z,7.67
2023-02-04T15:44:38.629Z,6.43
2023-02-04T15:54:40.959Z,7.30
2023-02-04T16:04:45.610Z,6.87
2023-02-04T16:14:48.781Z,7.33
2023-02-04T16:24:53.095Z,6.53
2023-02-04T16:34:56.787Z,7.10
2023-02-04T16:44:59.391Z,5.10
2023-02-04T16:55:01.805Z,4.57
2023-02-04T17:05:05.555Z,4.00
2023-02-04T17:15:08.126Z,4.27
2023-02-04T17:25:10.968Z,4.40
2023-02-04T17:35:14.089Z,4.73
2023-02-04T17:45:17.848Z,4.37
2023-02-04T17:55:27.852Z,3.63
2023-02-04T18:05:31.026Z,4.03
2023-02-04T18:15:34.654Z,4.37
2023-02-04T18:25:37.191Z,5.03
2023-02-04T18:35:46.970Z,4.73
2023-02-04T18:45:49.805Z,5.90
2023-02-04T18:55:55.966Z,7.20
2023-02-04T19:06:00.249Z,6.63
2023-02-04T19:16:07.253Z,6.63
2023-02-04T19:26:43.415Z,6.80
2023-02-04T19:36:47.062Z,6.97
2023-02-04T19:46:50.098Z,6.93
2023-02-04T19:56:55.053Z,7.00
2023-02-04T20:06:58.277Z,6.70
2023-02-04T20:17:03.850Z,6.07
2023-02-04T20:27:17.041Z,6.20
2023-02-04T20:37:27.165Z,6.30
2023-02-04T20:47:30.442Z,7.67
2023-02-04T20:57:34.948Z,7.27
2023-02-04T21:07:37.849Z,6.57
2023-02-04T21:17:42.063Z,7.87
2023-02-04T21:27:44.837Z,6.67
2023-02-04T21:37:48.320Z,9.70
2023-02-04T21:47:52.848Z,8.93
2023-02-04T21:57:56.776Z,7.90
2023-02-04T22:08:00.057Z,8.03
2023-02-04T22:18:02.988Z,7.20
2023-02-04T22:28:06.231Z,8.60
2023-02-04T22:38:09.336Z,8.37
2023-02-04T22:48:13.291Z,8.53
2023-02-04T22:58:16.298Z,8.87
2023-02-04T23:08:19.520Z,7.57
2023-02-04T23:18:22.756Z,11.07
2023-02-04T23:28:27.230Z,9.43
2023-02-04T23:38:31.598Z,7.70
2023-02-04T23:48:34.790Z,7.80
2023-02-04T23:58:37.836Z,8.90
